»·PEaware :: N9763T KSNA-KTOA

N9763T :: KSNA-KTOA

FLIGHT INFORMATION

Flight Status: Arrived
Operator: Privately registered:
United States
More flights under this callsign
Pilot: Anonymous 25037 (25037)
Aircraft: PIPER PA-38 TOMAHAWK
(PA38)
More flights by this aircraft type
Origin: KSNA John Wayne-Orange Co
United States
Destination: KTOA Zamperini
United States
More flights between these airports :: More routes between these airports
Route: +SLI
File this flight plan on PilotEdge
Remarks: +CW / Sim WX is 400ft Overcast to 4000ft (new IFR student pilot- patience please)
Altitude:
(Current/Filed)
2,000ft
Speed:
(Current/Filed)
100kts
Departed: 06-Aug-19 05:20 PM
Arrived: 06-Aug-19 06:05 PM
Distance/Time
Traveled:
25nm/0:45
Distance/Time
To Go:
Arrived

Flight Plot

Page will automatically refresh every two minutes.


Map Options




Map Legend


Flown Route
Filed Route
Departure Airport
Arrival Airport
Navaid (VOR, NDB)
Fix

Horizontal Profiles

Position Reports

Time Latitude Longitude Heading Altitude Ground
Speed
06-Aug-19 17:03 33.677082 -117.863598 296 59ft 0kts
06-Aug-19 17:04 33.677082 -117.863599 296 59ft 0kts
06-Aug-19 17:05 33.677083 -117.863601 296 59ft 0kts
06-Aug-19 17:06 33.677084 -117.863603 296 59ft 0kts
06-Aug-19 17:07 33.677085 -117.863604 296 59ft 0kts
06-Aug-19 17:08 33.677085 -117.863606 296 59ft 0kts
06-Aug-19 17:09 33.677086 -117.863607 296 59ft 0kts
06-Aug-19 17:10 33.677087 -117.863609 296 59ft 0kts
06-Aug-19 17:11 33.677087 -117.863611 296 59ft 0kts
06-Aug-19 17:12 33.677088 -117.863612 296 59ft 0kts
06-Aug-19 17:13 33.677089 -117.863614 296 59ft 0kts
06-Aug-19 17:14 33.677089 -117.863616 296 59ft 0kts
06-Aug-19 17:15 33.677090 -117.863617 296 59ft 0kts
06-Aug-19 17:16 33.678900 -117.863323 26 59ft 13kts
06-Aug-19 17:17 33.679661 -117.863666 299 59ft 0kts
06-Aug-19 17:18 33.679060 -117.864889 213 59ft 37kts
06-Aug-19 17:19 33.661808 -117.879893 231 752ft 88kts
06-Aug-19 17:20 33.642176 -117.898666 233 1574ft 90kts
06-Aug-19 17:21 33.624015 -117.919140 230 2033ft 90kts
06-Aug-19 17:22 33.606310 -117.942212 232 1988ft 96kts
06-Aug-19 17:23 33.591669 -117.967564 264 1957ft 89kts
06-Aug-19 17:24 33.601744 -117.993224 302 1988ft 85kts
06-Aug-19 17:25 33.615390 -118.016775 305 2030ft 86kts
06-Aug-19 17:26 33.624907 -118.043024 289 2047ft 87kts
06-Aug-19 17:27 33.632871 -118.070922 290 2012ft 88kts
06-Aug-19 17:28 33.642599 -118.097941 306 1977ft 88kts
06-Aug-19 17:29 33.656273 -118.122126 312 1959ft 90kts
06-Aug-19 17:30 33.672419 -118.143918 303 1975ft 87kts
06-Aug-19 17:31 33.686762 -118.167161 299 1996ft 86kts
06-Aug-19 17:32 33.702434 -118.189179 310 2014ft 86kts
06-Aug-19 17:33 33.717750 -118.211387 316 2032ft 87kts
06-Aug-19 17:34 33.731576 -118.234773 299 2052ft 86kts
06-Aug-19 17:35 33.747039 -118.256584 305 2077ft 79kts
06-Aug-19 17:36 33.762377 -118.276219 325 1489ft 75kts
06-Aug-19 17:37 33.774646 -118.295515 310 938ft 67kts
06-Aug-19 17:38 33.786372 -118.312550 306 633ft 69kts
06-Aug-19 17:39 33.798139 -118.330461 308 430ft 62kts
06-Aug-19 17:40 33.809128 -118.348120 301 746ft 69kts
06-Aug-19 17:41 33.817910 -118.367995 284 1430ft 68kts
06-Aug-19 17:42 33.827213 -118.388013 300 2175ft 72kts
06-Aug-19 17:43 33.831873 -118.410801 233 2976ft 84kts
06-Aug-19 17:44 33.808080 -118.408232 140 3031ft 107kts
06-Aug-19 17:45 33.784770 -118.385520 141 2991ft 108kts
06-Aug-19 17:46 33.766044 -118.357385 130 2977ft 108kts
06-Aug-19 17:47 33.746478 -118.329699 127 3010ft 105kts
06-Aug-19 17:48 33.728461 -118.301384 129 2486ft 103kts
06-Aug-19 17:49 33.708427 -118.273920 135 2028ft 106kts
06-Aug-19 17:50 33.689972 -118.247056 133 1977ft 102kts
06-Aug-19 17:51 33.672576 -118.220413 126 2023ft 102kts
06-Aug-19 17:53 33.656886 -118.191935 127 2043ft 102kts
06-Aug-19 17:54 33.661278 -118.166464 29 2026ft 91kts
06-Aug-19 17:55 33.681531 -118.166787 301 2024ft 81kts
06-Aug-19 17:56 33.698155 -118.185388 317 2048ft 82kts
06-Aug-19 17:57 33.713704 -118.205066 307 2090ft 81kts
06-Aug-19 17:58 33.728442 -118.226251 304 2093ft 80kts
06-Aug-19 17:59 33.741187 -118.246239 315 1867ft 73kts
06-Aug-19 18:00 33.751759 -118.265183 291 1681ft 64kts
06-Aug-19 18:01 33.763349 -118.280915 316 1582ft 64kts
06-Aug-19 18:02 33.775251 -118.295904 304 1131ft 58kts
06-Aug-19 18:03 33.785679 -118.312033 307 608ft 62kts
06-Aug-19 18:04 33.796333 -118.327928 305 290ft 59kts
06-Aug-19 18:05 33.804472 -118.340270 309 106ft 29kts
06-Aug-19 18:06 33.805909 -118.343850 284 106ft 0kts

Navigation Log

Ident Type
Flight plan parsing failed, navigation log unavailable